Lamont, KS

11:03 PM CDT on July 11, 2014 (GMT -0500)
T-K Weather Station West Hartford, Kansas (KKSHARTF2) Elev 1129 ft | 38.28 °N, 96.05 °W | Change Station

Current weather conditions updated 6 minutes ago

Clear
Clear
78.6 °F
Feels Like 81 °F
N
4.2
Wind Variable Wind from ESE

Tomorrow is forecast to be Cooler than today.

Today
High -- | Low -- °F
--% Chance of Precip.
Yesterday
High -- | Low -- °F
Precip. -- in
6:10 AM 8:48 PM
Full, 100% visible
Pressure 30.03 in
Visibility 10.0 miles
Clouds Clear
Heat Index 81 °F
Dew Point 69 °F
Humidity 72%
Rainfall 0.00 in
Snow Depth Not available.
UV 0 out of 12
Pollen 3.90 out of 12
Air Quality Not available.
Flu Activity No Activity
METAR KEMP 120353Z AUTO 17011KT 10SM CLR 26/20 A3006 RMK AO2 SLP169 T02610200

More Conditions Fewer Conditions

Pressure 30.03 in
Visibility 10.0 miles
Clouds Clear
Heat Index 81 °F
Dew Point 69 °F
Humidity 72%
Rainfall 0.00 in
Snow Depth Not available.
UV 0 out of 12
Pollen 3.90 out of 12
Air Quality Not available.
Flu Activity No Activity
METAR KEMP 120353Z AUTO 17011KT 10SM CLR 26/20 A3006 RMK AO2 SLP169 T02610200

More Conditions Fewer Conditions

10-Day Weather Forecast

Almanac

Astronomy

Jul. 11, 2014 Rise Set
Actual Time 6:10 AM CDT 8:48 PM CDT
Civil Twilight 5:39 AM CDT 9:19 PM CDT
Nautical Twilight 5:01 AM CDT 9:57 PM CDT
Astronomical Twilight 4:17 AM CDT 10:40 PM CDT
Moon 8:00 PM CDT (7/11) 5:22 AM CDT (7/11)
Length of Visible Light 15h 39m
Length of Day
14h 37m
Tomorrow will be 1m 5s shorter.
Full, 100% of the Moon is Illuminated
Jul 12
Full
Jul 12
Full
Jul 18
Last Quarter
Jul 26
New
Aug 3
First Quarter

Today's Extremes

State Highs State Lows

Community

WunderPhotos

Upload Photos

1,732,699 photos uploaded!

Nearby

Snow Depth

Station Depth Elevation
No new snow has been reported.

Earthquake Activity

City Distance Mag. Time & Date
Medford, Oklahoma 140 miles 3.1 10:22 AM CDT
2014-07-06
Medford, Oklahoma 134 miles 3.2 11:10 PM CDT
2014-07-05
Perry, Oklahoma 154 miles 3.3 8:44 PM CDT
2014-07-05
Minimum magnitude displayed is 2.5.

Coastal Water Temperatures

Place Temperature
No Stations Reporting

Nearby Weather Stations

Station Location Temp. Heat Index Dew Point Humidity Wind Precip. Elev Updated Type
T-K Weather Station West Hartford, Kansa, Hartford, KS 78.6 °F 81 °F 69 °F 72% ESE  at  4.2 mph - / hr 1129 ft 10:56 PM CDT Normal
KS, Burlington, KS 80.4 °F 80 °F 53 °F 39% ESE  at  5.8 mph 0.00 in / hr 1050 ft 11:02 PM CDT Rapid Fire
East Emporia Kansas, Emporia, KS 79.0 °F 81 °F 68 °F 68% SSW  at  6.3 mph - / hr 1106 ft 10:59 PM CDT Normal
Toronto, KS, Toronto, KS 80.1 °F 84 °F 72 °F 77% South  at  0.0 mph 0.00 in / hr 971 ft 10:50 PM CDT Normal
Rural Flint Hills of Emporia, Emporia, KS 77.8 °F 80 °F 71 °F 79% SE  at  6.0 mph 0.00 in / hr 1270 ft 10:51 PM CDT Normal
Timmerman School Area, Emporia, KS 82.6 °F 88 °F 72 °F 71% SSE  at  8.9 mph 0.00 in / hr 1214 ft 9:56 PM CDT Rapid Fire

Show More Stations Show Fewer Stations